createdAt,value
2023-02-06T00:01:53.741Z,-3.49
2023-02-06T00:04:22.902Z,-3.48
2023-02-06T00:06:51.657Z,-3.49
2023-02-06T00:09:20.712Z,-3.46
2023-02-06T00:11:49.473Z,-3.49
2023-02-06T00:14:18.549Z,-3.48
2023-02-06T00:16:47.332Z,-3.49
2023-02-06T00:19:17.759Z,-3.47
2023-02-06T00:21:46.617Z,-3.46
2023-02-06T00:24:15.706Z,-3.41
2023-02-06T00:26:44.543Z,-3.41
2023-02-06T00:29:13.688Z,-3.35
2023-02-06T00:31:42.578Z,-3.36
2023-02-06T00:34:11.660Z,-3.35
2023-02-06T00:36:43.132Z,-3.28
2023-02-06T00:39:12.179Z,-3.28
2023-02-06T00:41:40.951Z,-3.30
2023-02-06T00:44:10.203Z,-3.29
2023-02-06T00:46:39.079Z,-3.30
2023-02-06T00:49:08.231Z,-3.27
2023-02-06T00:51:38.918Z,-3.25
2023-02-06T00:54:10.293Z,-3.25
2023-02-06T00:56:39.161Z,-3.21
2023-02-06T00:59:08.389Z,-3.18
2023-02-06T01:01:37.287Z,-3.16
2023-02-06T01:04:06.476Z,-3.14
2023-02-06T01:06:35.273Z,-3.18
2023-02-06T01:09:04.881Z,-3.12
2023-02-06T01:11:36.623Z,-3.12
2023-02-06T01:14:05.888Z,-3.12
2023-02-06T01:16:34.973Z,-3.14
2023-02-06T01:19:04.218Z,-3.09
2023-02-06T01:21:34.786Z,-3.11
2023-02-06T01:24:04.170Z,-3.09
2023-02-06T01:26:34.636Z,-3.11
2023-02-06T01:29:05.770Z,-3.12
2023-02-06T01:31:34.863Z,-3.14
2023-02-06T01:34:07.600Z,-3.11
2023-02-06T01:36:38.005Z,-3.09
2023-02-06T01:39:08.340Z,-3.10
2023-02-06T01:41:38.570Z,-3.08
2023-02-06T01:44:16.059Z,-3.08
2023-02-06T01:46:48.018Z,-3.11
2023-02-06T01:49:22.537Z,-3.14
2023-02-06T01:51:53.849Z,-3.17
2023-02-06T01:54:23.780Z,-3.21
2023-02-06T01:57:01.618Z,-3.27
2023-02-06T01:59:30.906Z,-3.30
2023-02-06T02:02:00.365Z,-3.33
2023-02-06T02:04:32.372Z,-3.33
2023-02-06T02:07:12.934Z,-3.34
2023-02-06T02:09:42.171Z,-3.33
2023-02-06T02:12:13.785Z,-3.34
2023-02-06T02:14:45.946Z,-3.38
2023-02-06T02:17:34.247Z,-3.38
2023-02-06T02:20:47.942Z,-3.39
2023-02-06T02:23:37.835Z,-3.40
2023-02-06T02:26:46.323Z,-3.39
2023-02-06T02:30:12.204Z,-3.41
2023-02-06T02:33:27.472Z,-3.43
2023-02-06T02:36:09.383Z,-3.43
2023-02-06T02:38:54.831Z,-3.40
2023-02-06T02:41:33.943Z,-3.41
2023-02-06T02:44:11.432Z,-3.38
2023-02-06T02:46:45.875Z,-3.36
2023-02-06T02:49:22.791Z,-3.38
2023-02-06T02:51:54.852Z,-3.40
2023-02-06T02:54:23.926Z,-3.42
2023-02-06T02:56:53.139Z,-3.41
2023-02-06T02:59:28.872Z,-3.41
2023-02-06T03:02:04.764Z,-3.40
2023-02-06T03:04:40.951Z,-3.41
2023-02-06T03:07:29.077Z,-3.41
2023-02-06T03:10:10.136Z,-3.42
2023-02-06T03:12:50.760Z,-3.42
2023-02-06T03:15:30.794Z,-3.43
2023-02-06T03:18:08.605Z,-3.46
2023-02-06T03:20:41.991Z,-3.45
2023-02-06T03:23:18.636Z,-3.52
2023-02-06T03:25:54.140Z,-3.49
2023-02-06T03:28:29.107Z,-3.49
2023-02-06T03:31:03.193Z,-3.54
2023-02-06T03:33:37.953Z,-3.54
2023-02-06T03:36:11.182Z,-3.58
2023-02-06T03:38:41.890Z,-3.62
2023-02-06T03:41:11.628Z,-3.63
2023-02-06T03:43:42.833Z,-3.65
2023-02-06T03:46:18.034Z,-3.70
2023-02-06T03:48:53.712Z,-3.70
2023-02-06T03:51:30.229Z,-3.73
2023-02-06T03:54:05.418Z,-3.72
2023-02-06T03:56:41.242Z,-3.76
2023-02-06T03:59:10.064Z,-3.76
2023-02-06T04:01:43.527Z,-3.74
2023-02-06T04:04:12.470Z,-3.70
2023-02-06T04:06:41.574Z,-3.63
2023-02-06T04:09:11.968Z,-3.66
2023-02-06T04:11:41.084Z,-3.66
2023-02-06T04:14:09.834Z,-3.65
2023-02-06T04:16:39.022Z,-3.63
2023-02-06T04:19:07.800Z,-3.63
2023-02-06T04:21:36.865Z,-3.64
2023-02-06T04:24:06.263Z,-3.62
2023-02-06T04:26:36.772Z,-3.61
2023-02-06T04:29:05.765Z,-3.57
2023-02-06T04:31:34.977Z,-3.57
2023-02-06T04:34:03.823Z,-3.52
2023-02-06T04:36:32.930Z,-3.49
2023-02-06T04:39:01.933Z,-3.47
2023-02-06T04:41:31.100Z,-3.43
2023-02-06T04:44:01.413Z,-3.41
2023-02-06T04:46:30.600Z,-3.43
2023-02-06T04:48:59.392Z,-3.41
2023-02-06T04:51:28.555Z,-3.44
2023-02-06T04:53:57.937Z,-3.50
2023-02-06T04:56:27.090Z,-3.50
2023-02-06T04:58:55.982Z,-3.50
2023-02-06T05:01:26.887Z,-3.47
2023-02-06T05:03:55.667Z,-3.52
2023-02-06T05:06:24.811Z,-3.52
2023-02-06T05:08:53.718Z,-3.52
2023-02-06T05:11:23.217Z,-3.54
2023-02-06T05:13:52.219Z,-3.58
2023-02-06T05:16:21.435Z,-3.57
2023-02-06T05:18:54.740Z,-3.55
2023-02-06T05:21:25.366Z,-3.59
2023-02-06T05:23:54.497Z,-3.52
2023-02-06T05:26:23.620Z,-3.52
2023-02-06T05:28:52.509Z,-3.46
2023-02-06T05:31:21.765Z,-3.41
2023-02-06T05:33:52.962Z,-3.42
2023-02-06T05:36:23.980Z,-3.49
2023-02-06T05:38:53.116Z,-3.48
2023-02-06T05:41:22.308Z,-3.52
2023-02-06T05:43:51.178Z,-3.43
2023-02-06T05:46:20.290Z,-3.47
2023-02-06T05:48:49.070Z,-3.57
2023-02-06T05:51:19.518Z,-3.52
2023-02-06T05:53:48.437Z,-3.47
2023-02-06T05:56:17.620Z,-3.47
2023-02-06T05:58:46.423Z,-3.53
2023-02-06T06:01:15.730Z,-3.50
2023-02-06T06:03:44.681Z,-3.54
2023-02-06T06:06:13.767Z,-3.58
2023-02-06T06:08:44.017Z,-3.61
2023-02-06T06:11:13.164Z,-3.68
2023-02-06T06:13:41.939Z,-3.67
2023-02-06T06:16:11.061Z,-3.62
2023-02-06T06:18:39.968Z,-3.60
2023-02-06T06:21:09.728Z,-3.58
2023-02-06T06:23:38.581Z,-3.55
2023-02-06T06:26:09.080Z,-3.49
2023-02-06T06:28:39.534Z,-3.41
2023-02-06T06:31:12.732Z,-3.40
2023-02-06T06:33:42.214Z,-3.46
2023-02-06T06:36:14.513Z,-3.43
2023-02-06T06:38:43.738Z,-3.38
2023-02-06T06:41:14.220Z,-3.38
2023-02-06T06:43:43.354Z,-3.33
2023-02-06T06:46:12.502Z,-3.35
2023-02-06T06:48:41.276Z,-3.32
2023-02-06T06:51:10.437Z,-3.29
2023-02-06T06:53:40.207Z,-3.22
2023-02-06T06:56:14.620Z,-3.16
2023-02-06T06:58:44.136Z,-3.25
2023-02-06T07:01:13.313Z,-3.30
2023-02-06T07:03:44.238Z,-3.22
2023-02-06T07:06:14.011Z,-3.20
2023-02-06T07:08:43.635Z,-3.15
2023-02-06T07:11:16.081Z,-3.14
2023-02-06T07:13:45.586Z,-3.04
2023-02-06T07:16:15.077Z,-3.00
2023-02-06T07:18:44.005Z,-2.98
2023-02-06T07:21:15.841Z,-3.06
2023-02-06T07:23:44.671Z,-3.08
2023-02-06T07:26:15.308Z,-3.11
2023-02-06T07:28:44.157Z,-3.21
2023-02-06T07:31:13.289Z,-3.10
2023-02-06T07:33:42.228Z,-3.13
2023-02-06T07:36:13.176Z,-2.96
2023-02-06T07:38:42.483Z,-2.84
2023-02-06T07:41:12.809Z,-2.85
2023-02-06T07:43:43.278Z,-2.88
2023-02-06T07:46:12.525Z,-2.88
2023-02-06T07:48:42.540Z,-2.99
2023-02-06T07:51:11.731Z,-3.13
2023-02-06T07:53:40.651Z,-3.12
2023-02-06T07:56:15.735Z,-2.99
2023-02-06T07:58:47.385Z,-2.89
2023-02-06T08:01:16.596Z,-2.87
2023-02-06T08:03:45.455Z,-2.76
2023-02-06T08:06:16.943Z,-2.75
2023-02-06T08:08:46.138Z,-2.67
2023-02-06T08:11:18.680Z,-2.58
2023-02-06T08:13:49.834Z,-2.47
2023-02-06T08:16:21.931Z,-2.50
2023-02-06T08:18:51.261Z,-2.46
2023-02-06T08:21:23.731Z,-2.49
2023-02-06T08:23:56.980Z,-2.38
2023-02-06T08:26:27.848Z,-2.31
2023-02-06T08:29:01.680Z,-2.25
2023-02-06T08:31:34.234Z,-2.22
2023-02-06T08:34:03.751Z,-2.14
2023-02-06T08:36:34.194Z,-2.03
2023-02-06T08:39:05.465Z,-2.00
2023-02-06T08:41:38.035Z,-1.90
2023-02-06T08:44:12.809Z,-1.68
2023-02-06T08:46:43.060Z,-1.53
2023-02-06T08:49:16.171Z,-1.57
2023-02-06T08:51:46.535Z,-1.48
2023-02-06T08:54:18.660Z,-1.33
2023-02-06T08:56:48.334Z,-1.13
2023-02-06T08:59:20.755Z,-1.06
2023-02-06T09:01:52.228Z,-1.03
2023-02-06T09:04:21.137Z,-1.00
2023-02-06T09:06:52.271Z,-0.92
2023-02-06T09:09:21.247Z,-0.79
2023-02-06T09:11:50.462Z,-0.79
2023-02-06T09:14:23.539Z,-0.74
2023-02-06T09:16:52.572Z,-0.70
2023-02-06T09:19:21.396Z,-0.64
2023-02-06T09:21:50.682Z,-0.64
2023-02-06T09:24:19.615Z,-0.52
2023-02-06T09:27:04.005Z,-0.49
2023-02-06T09:29:34.456Z,-0.44
2023-02-06T09:32:03.828Z,-0.36
2023-02-06T09:34:32.752Z,-0.15
2023-02-06T09:37:03.967Z,-0.03
2023-02-06T09:39:33.605Z,0.13
2023-02-06T09:42:09.057Z,1.02
2023-02-06T09:44:45.502Z,2.00
2023-02-06T09:47:25.407Z,2.61
2023-02-06T09:49:58.963Z,2.79
2023-02-06T09:52:50.961Z,3.13
2023-02-06T09:55:30.740Z,3.18
2023-02-06T09:58:16.056Z,2.87
2023-02-06T10:00:53.227Z,2.54
2023-02-06T10:03:49.018Z,2.21
2023-02-06T10:06:25.258Z,1.98
2023-02-06T10:09:03.042Z,1.92
2023-02-06T10:11:45.135Z,1.86
2023-02-06T10:14:23.296Z,1.77
2023-02-06T10:16:59.185Z,1.81
2023-02-06T10:19:44.223Z,2.01
2023-02-06T10:22:21.196Z,2.15
2023-02-06T10:25:18.692Z,2.37
2023-02-06T10:27:58.841Z,3.09
2023-02-06T10:30:56.021Z,3.50
2023-02-06T10:33:36.793Z,3.50
2023-02-06T10:36:37.701Z,3.21
2023-02-06T10:39:52.643Z,2.90
2023-02-06T10:42:35.270Z,2.74
2023-02-06T10:45:20.214Z,2.64
2023-02-06T10:47:56.839Z,2.55
2023-02-06T10:50:33.655Z,2.60
2023-02-06T10:53:13.725Z,2.69
2023-02-06T10:55:49.374Z,2.65
2023-02-06T10:58:26.253Z,2.67
2023-02-06T11:00:57.181Z,2.70
2023-02-06T11:03:32.172Z,2.67
2023-02-06T11:06:04.121Z,2.75
2023-02-06T11:08:37.836Z,2.94
2023-02-06T11:11:22.475Z,3.10
2023-02-06T11:13:57.505Z,3.27
2023-02-06T11:16:29.162Z,3.49
2023-02-06T11:19:10.804Z,3.28
2023-02-06T11:21:57.145Z,3.19
2023-02-06T11:24:26.936Z,2.95
2023-02-06T11:27:02.140Z,2.77
2023-02-06T11:29:35.924Z,2.69
2023-02-06T11:32:08.622Z,2.57
2023-02-06T11:34:54.651Z,2.47
2023-02-06T11:37:37.546Z,2.29
2023-02-06T11:40:25.595Z,1.95
2023-02-06T11:43:15.750Z,1.76
2023-02-06T11:45:47.285Z,1.62
2023-02-06T11:48:39.644Z,1.66
2023-02-06T11:51:10.797Z,1.60
2023-02-06T11:53:56.279Z,1.66
2023-02-06T11:56:26.315Z,1.61
2023-02-06T11:59:17.909Z,1.52
2023-02-06T12:01:48.907Z,1.60
2023-02-06T12:04:25.117Z,1.66
2023-02-06T12:07:02.610Z,1.67
2023-02-06T12:09:33.003Z,1.57
2023-02-06T12:12:17.365Z,1.42
2023-02-06T12:14:52.900Z,1.29
2023-02-06T12:17:29.298Z,1.35
2023-02-06T12:20:06.360Z,1.44
2023-02-06T12:22:42.568Z,1.42
2023-02-06T12:25:27.870Z,1.42
2023-02-06T12:28:05.860Z,1.54
2023-02-06T12:30:43.011Z,1.58
2023-02-06T12:33:19.349Z,1.57
2023-02-06T12:35:56.370Z,1.62
2023-02-06T12:38:41.456Z,1.74
2023-02-06T12:41:37.666Z,1.71
2023-02-06T12:44:28.913Z,1.70
2023-02-06T12:47:08.426Z,1.72
2023-02-06T12:49:52.119Z,1.74
2023-02-06T12:52:28.263Z,1.73
2023-02-06T12:55:08.619Z,1.71
2023-02-06T12:57:39.620Z,1.71
2023-02-06T13:00:33.303Z,1.69
2023-02-06T13:03:31.165Z,1.67
2023-02-06T13:06:16.710Z,1.75
2023-02-06T13:08:56.035Z,1.77
2023-02-06T13:11:35.133Z,1.82
2023-02-06T13:14:17.686Z,1.84
2023-02-06T13:16:58.230Z,1.66
2023-02-06T13:19:32.046Z,1.81
2023-02-06T13:22:39.473Z,1.86
2023-02-06T13:25:53.650Z,1.91
2023-02-06T13:29:03.168Z,1.95
2023-02-06T13:31:35.536Z,2.03
2023-02-06T13:34:20.135Z,2.08
2023-02-06T13:36:55.270Z,2.05
2023-02-06T13:39:33.082Z,1.99
2023-02-06T13:42:42.151Z,1.99
2023-02-06T13:45:22.549Z,2.01
2023-02-06T13:48:30.655Z,2.14
2023-02-06T13:51:50.210Z,2.19
2023-02-06T13:55:03.286Z,2.23
2023-02-06T13:57:55.779Z,2.26
2023-02-06T14:00:30.266Z,2.19
2023-02-06T14:03:14.099Z,2.17
2023-02-06T14:05:54.427Z,2.18
2023-02-06T14:08:38.652Z,2.17
2023-02-06T14:11:27.940Z,2.14
2023-02-06T14:14:33.088Z,2.16
2023-02-06T14:17:15.832Z,2.13
2023-02-06T14:19:57.075Z,2.12
2023-02-06T14:22:37.764Z,2.10
2023-02-06T14:25:32.554Z,2.06
2023-02-06T14:28:19.115Z,2.06
2023-02-06T14:31:02.953Z,2.02
2023-02-06T14:33:58.516Z,1.98
2023-02-06T14:37:06.243Z,1.89
2023-02-06T14:39:52.071Z,1.80
2023-02-06T14:42:26.882Z,1.66
2023-02-06T14:45:01.329Z,1.56
2023-02-06T14:47:41.037Z,1.51
2023-02-06T14:50:20.889Z,1.46
2023-02-06T14:52:57.242Z,1.37
2023-02-06T14:55:36.917Z,1.36
2023-02-06T14:58:25.547Z,1.32
2023-02-06T15:00:55.506Z,1.27
2023-02-06T15:03:27.982Z,1.24
2023-02-06T15:06:04.025Z,1.24
2023-02-06T15:08:35.733Z,1.24
2023-02-06T15:11:08.645Z,1.20
2023-02-06T15:13:38.607Z,1.19
2023-02-06T15:16:10.573Z,1.09
2023-02-06T15:18:39.984Z,1.00
2023-02-06T15:21:14.616Z,0.93
2023-02-06T15:24:07.189Z,0.90
2023-02-06T15:26:46.999Z,0.83
2023-02-06T15:29:22.127Z,0.83
2023-02-06T15:31:54.427Z,0.80
2023-02-06T15:34:26.202Z,0.80
2023-02-06T15:36:55.500Z,0.80
2023-02-06T15:39:26.970Z,0.78
2023-02-06T15:41:56.414Z,0.77
2023-02-06T15:44:32.740Z,0.69
2023-02-06T15:47:05.790Z,0.67
2023-02-06T15:49:41.110Z,0.61
2023-02-06T15:52:11.955Z,0.57
2023-02-06T15:54:45.202Z,0.51
2023-02-06T15:57:30.857Z,0.44
2023-02-06T16:00:01.141Z,0.36
2023-02-06T16:02:36.118Z,0.31
2023-02-06T16:05:07.418Z,0.24
2023-02-06T16:07:37.770Z,0.19
2023-02-06T16:10:23.162Z,0.14
2023-02-06T16:12:55.193Z,0.08
2023-02-06T16:15:30.986Z,0.07
2023-02-06T16:18:03.855Z,0.06
2023-02-06T16:20:40.082Z,0.03
2023-02-06T16:23:24.828Z,-0.04
2023-02-06T16:26:14.446Z,-0.09
2023-02-06T16:28:57.888Z,-0.14
2023-02-06T16:31:29.727Z,-0.16
2023-02-06T16:34:03.447Z,-0.17
2023-02-06T16:36:34.024Z,-0.23
2023-02-06T16:39:04.711Z,-0.30
2023-02-06T16:41:39.798Z,-0.33
2023-02-06T16:44:15.587Z,-0.33
2023-02-06T16:46:46.520Z,-0.40
2023-02-06T16:49:18.296Z,-0.47
2023-02-06T16:51:51.314Z,-0.49
2023-02-06T16:54:27.414Z,-0.61
2023-02-06T16:57:09.506Z,-0.58
2023-02-06T16:59:38.740Z,-0.63
2023-02-06T17:02:14.252Z,-0.65
2023-02-06T17:04:43.976Z,-0.67
2023-02-06T17:07:20.548Z,-0.68
2023-02-06T17:09:51.216Z,-0.70
2023-02-06T17:12:24.251Z,-0.72
2023-02-06T17:14:53.395Z,-0.78
2023-02-06T17:17:24.613Z,-0.85
2023-02-06T17:19:54.160Z,-0.88
2023-02-06T17:22:23.580Z,-0.89
2023-02-06T17:24:52.589Z,-0.93
2023-02-06T17:27:24.427Z,-0.97
2023-02-06T17:29:53.938Z,-1.02
2023-02-06T17:32:23.395Z,-1.00
2023-02-06T17:34:54.395Z,-1.02
2023-02-06T17:37:23.792Z,-1.06
2023-02-06T17:39:54.093Z,-1.07
2023-02-06T17:42:25.774Z,-1.09
2023-02-06T17:44:54.840Z,-1.14
2023-02-06T17:47:24.299Z,-1.15
2023-02-06T17:49:53.425Z,-1.16
2023-02-06T17:52:22.779Z,-1.19
2023-02-06T17:54:52.131Z,-1.22
2023-02-06T17:57:21.634Z,-1.25
2023-02-06T17:59:53.882Z,-1.24
2023-02-06T18:02:23.522Z,-1.28
2023-02-06T18:04:54.236Z,-1.27
2023-02-06T18:07:23.545Z,-1.30
2023-02-06T18:09:52.749Z,-1.31
2023-02-06T18:12:22.179Z,-1.31
2023-02-06T18:14:52.788Z,-1.34
2023-02-06T18:17:22.529Z,-1.38
2023-02-06T18:19:52.239Z,-1.45
2023-02-06T18:22:23.355Z,-1.46
2023-02-06T18:24:52.619Z,-1.46
2023-02-06T18:27:23.209Z,-1.51
2023-02-06T18:29:55.225Z,-1.52
2023-02-06T18:32:24.697Z,-1.54
2023-02-06T18:34:53.750Z,-1.57
2023-02-06T18:37:23.231Z,-1.57
2023-02-06T18:39:52.411Z,-1.57
2023-02-06T18:42:39.326Z,-1.60
2023-02-06T18:45:10.879Z,-1.61
2023-02-06T18:47:42.456Z,-1.63
2023-02-06T18:50:12.930Z,-1.63
2023-02-06T18:52:42.315Z,-1.70
2023-02-06T18:55:11.432Z,-1.73
2023-02-06T18:57:41.783Z,-1.72
2023-02-06T19:00:17.598Z,-1.75
2023-02-06T19:02:48.367Z,-1.79
2023-02-06T19:05:18.076Z,-1.78
2023-02-06T19:07:51.624Z,-1.79
2023-02-06T19:10:22.718Z,-1.76
2023-02-06T19:12:52.086Z,-1.85
2023-02-06T19:15:22.769Z,-1.80
2023-02-06T19:17:52.214Z,-1.82
2023-02-06T19:20:21.544Z,-1.89
2023-02-06T19:22:52.637Z,-1.91
2023-02-06T19:25:22.056Z,-1.94
2023-02-06T19:27:51.473Z,-1.90
2023-02-06T19:30:22.170Z,-1.91
2023-02-06T19:32:51.596Z,-1.93
2023-02-06T19:35:21.503Z,-1.99
2023-02-06T19:37:51.925Z,-2.05
2023-02-06T19:40:21.260Z,-2.08
2023-02-06T19:42:50.642Z,-2.13
2023-02-06T19:45:21.175Z,-2.14
2023-02-06T19:47:50.521Z,-2.14
2023-02-06T19:50:19.899Z,-2.16
2023-02-06T19:52:49.214Z,-2.21
2023-02-06T19:55:18.466Z,-2.24
2023-02-06T19:57:47.890Z,-2.28
2023-02-06T20:00:17.593Z,-2.31
2023-02-06T20:02:48.447Z,-2.35
2023-02-06T20:05:20.275Z,-2.36
2023-02-06T20:07:49.690Z,-2.37
2023-02-06T20:10:18.894Z,-2.38
2023-02-06T20:12:48.307Z,-2.38
2023-02-06T20:15:17.566Z,-2.46
2023-02-06T20:17:48.354Z,-2.47
2023-02-06T20:20:17.456Z,-2.52
2023-02-06T20:22:46.824Z,-2.53
2023-02-06T20:25:16.642Z,-2.58
2023-02-06T20:27:46.026Z,-2.67
2023-02-06T20:30:16.237Z,-2.69
2023-02-06T20:32:47.333Z,-2.73
2023-02-06T20:35:16.596Z,-2.68
2023-02-06T20:37:46.066Z,-2.66
2023-02-06T20:40:15.106Z,-2.68
2023-02-06T20:42:44.618Z,-2.74
2023-02-06T20:45:14.111Z,-2.78
2023-02-06T20:47:43.667Z,-2.79
2023-02-06T20:50:14.801Z,-2.85
2023-02-06T20:52:44.237Z,-2.89
2023-02-06T20:55:13.312Z,-2.85
2023-02-06T20:57:43.365Z,-2.84
2023-02-06T21:00:14.568Z,-2.88
2023-02-06T21:02:44.025Z,-2.93
2023-02-06T21:05:14.809Z,-2.92
2023-02-06T21:07:44.116Z,-2.94
2023-02-06T21:13:02.781Z,-3.03
2023-02-06T21:15:31.852Z,-3.07
2023-02-06T21:18:01.231Z,-3.07
2023-02-06T21:20:31.679Z,-3.03
2023-02-06T21:23:01.089Z,-3.00
2023-02-06T21:25:30.223Z,-3.04
2023-02-06T21:27:59.541Z,-3.05
2023-02-06T21:30:28.682Z,-3.09
2023-02-06T21:32:58.046Z,-3.11
2023-02-06T21:35:28.788Z,-3.14
2023-02-06T21:37:59.546Z,-3.12
2023-02-06T21:40:28.627Z,-3.11
2023-02-06T21:42:58.285Z,-3.17
2023-02-06T21:45:27.364Z,-3.18
2023-02-06T21:47:56.732Z,-3.22
2023-02-06T21:50:25.938Z,-3.20
2023-02-06T21:52:55.338Z,-3.26
2023-02-06T21:55:25.773Z,-3.29
2023-02-06T21:57:55.125Z,-3.28
2023-02-06T22:00:24.538Z,-3.29
2023-02-06T22:02:53.906Z,-3.34
2023-02-06T22:05:23.282Z,-3.40
2023-02-06T22:07:52.631Z,-3.38
2023-02-06T22:10:21.806Z,-3.35
2023-02-06T22:12:52.587Z,-3.38
2023-02-06T22:15:21.812Z,-3.37
2023-02-06T22:17:51.288Z,-3.38
2023-02-06T22:20:20.579Z,-3.34
2023-02-06T22:22:49.958Z,-3.35
2023-02-06T22:25:19.385Z,-3.34
2023-02-06T22:27:48.812Z,-3.32
2023-02-06T22:30:19.751Z,-3.34
2023-02-06T22:32:49.204Z,-3.37
2023-02-06T22:35:18.501Z,-3.38
2023-02-06T22:37:48.289Z,-3.41
2023-02-06T22:40:17.836Z,-3.39
2023-02-06T22:42:47.181Z,-3.34
2023-02-06T22:45:16.262Z,-3.32
2023-02-06T22:47:46.954Z,-3.23
2023-02-06T22:50:16.291Z,-3.20
2023-02-06T22:53:02.796Z,-3.14
2023-02-06T22:55:51.949Z,-3.13
2023-02-06T22:58:21.368Z,-3.10
2023-02-06T23:00:50.519Z,-3.10
2023-02-06T23:03:21.253Z,-3.09
2023-02-06T23:05:50.358Z,-2.95
2023-02-06T23:08:19.701Z,-2.90
2023-02-06T23:10:50.279Z,-2.85
2023-02-06T23:13:19.674Z,-2.87
2023-02-06T23:15:48.693Z,-2.82
2023-02-06T23:18:18.088Z,-2.75
2023-02-06T23:20:54.976Z,-2.68
2023-02-06T23:23:25.592Z,-2.65
2023-02-06T23:25:55.020Z,-2.58
2023-02-06T23:28:26.819Z,-2.58
2023-02-06T23:30:56.578Z,-2.47
2023-02-06T23:33:25.996Z,-2.43
2023-02-06T23:35:56.439Z,-2.36
2023-02-06T23:38:25.781Z,-2.34
2023-02-06T23:40:54.839Z,-2.41
2023-02-06T23:43:24.110Z,-2.42
2023-02-06T23:45:53.125Z,-2.39
2023-02-06T23:48:22.433Z,-2.35
2023-02-06T23:50:52.321Z,-2.33
2023-02-06T23:53:23.108Z,-2.33
2023-02-06T23:55:52.866Z,-2.31
2023-02-06T23:58:22.845Z,-2.26
